createdAt,value
2022-09-15T00:02:03.253Z,14.70
2022-09-15T00:04:30.114Z,14.70
2022-09-15T00:06:56.773Z,14.60
2022-09-15T00:09:23.426Z,14.60
2022-09-15T00:11:50.058Z,14.50
2022-09-15T00:14:16.667Z,14.50
2022-09-15T00:16:43.453Z,14.50
2022-09-15T00:19:10.142Z,14.50
2022-09-15T00:21:40.066Z,14.40
2022-09-15T00:24:07.780Z,14.30
2022-09-15T00:26:35.310Z,14.30
2022-09-15T00:29:02.599Z,14.20
2022-09-15T00:31:30.890Z,14.20
2022-09-15T00:33:59.798Z,14.10
2022-09-15T00:36:26.902Z,14.10
2022-09-15T00:38:53.627Z,14.20
2022-09-15T00:41:22.004Z,14.20
2022-09-15T00:43:58.111Z,14.30
2022-09-15T00:46:33.781Z,14.20
2022-09-15T00:49:09.297Z,14.30
2022-09-15T00:51:42.960Z,14.30
2022-09-15T00:54:16.032Z,14.30
2022-09-15T00:56:44.079Z,14.40
2022-09-15T00:59:15.331Z,14.40
2022-09-15T01:01:43.707Z,14.40
2022-09-15T01:04:10.796Z,14.40
2022-09-15T01:06:42.600Z,14.40
2022-09-15T01:09:14.285Z,14.40
2022-09-15T01:11:41.999Z,14.40
2022-09-15T01:14:09.115Z,14.40
2022-09-15T01:16:53.679Z,14.40
2022-09-15T01:19:47.439Z,14.30
2022-09-15T01:22:32.070Z,14.20
2022-09-15T01:25:15.647Z,14.20
2022-09-15T01:28:20.023Z,14.10
2022-09-15T01:31:00.869Z,14.00
2022-09-15T01:33:53.523Z,14.00
2022-09-15T01:36:25.027Z,14.00
2022-09-15T01:39:23.620Z,14.00
2022-09-15T01:41:55.938Z,14.00
2022-09-15T01:44:27.692Z,14.00
2022-09-15T01:47:01.452Z,14.00
2022-09-15T01:49:38.317Z,13.90
2022-09-15T01:52:05.798Z,14.00
2022-09-15T01:54:37.200Z,14.10
2022-09-15T01:57:04.125Z,14.10
2022-09-15T01:59:30.817Z,14.20
2022-09-15T02:02:07.309Z,14.20
2022-09-15T02:04:46.856Z,14.20
2022-09-15T02:07:27.506Z,14.20
2022-09-15T02:09:57.487Z,14.20
2022-09-15T02:12:35.033Z,14.30
2022-09-15T02:15:14.945Z,14.30
2022-09-15T02:17:46.040Z,14.30
2022-09-15T02:20:43.182Z,14.20
2022-09-15T02:23:17.084Z,14.20
2022-09-15T02:25:48.853Z,14.30
2022-09-15T02:28:20.452Z,14.30
2022-09-15T02:30:49.316Z,14.40
2022-09-15T02:33:20.690Z,14.30
2022-09-15T02:35:47.862Z,14.30
2022-09-15T02:38:15.087Z,14.30
2022-09-15T02:40:44.310Z,14.30
2022-09-15T02:43:17.634Z,14.30
2022-09-15T02:45:44.542Z,14.30
2022-09-15T02:48:11.618Z,14.40
2022-09-15T02:50:39.163Z,14.30
2022-09-15T02:53:06.008Z,14.40
2022-09-15T02:55:33.493Z,14.30
2022-09-15T02:58:00.196Z,14.30
2022-09-15T03:00:28.247Z,14.40
2022-09-15T03:02:55.532Z,14.30
2022-09-15T03:05:25.379Z,14.30
2022-09-15T03:07:53.328Z,14.30
2022-09-15T03:10:21.258Z,14.40
2022-09-15T03:12:50.590Z,14.40
2022-09-15T03:15:19.767Z,14.40
2022-09-15T03:17:48.083Z,14.30
2022-09-15T03:20:18.582Z,14.30
2022-09-15T03:22:45.250Z,14.30
2022-09-15T03:25:13.351Z,14.30
2022-09-15T03:27:40.068Z,14.40
2022-09-15T03:30:07.582Z,14.40
2022-09-15T03:32:34.292Z,14.40
2022-09-15T03:35:01.017Z,14.40
2022-09-15T03:37:28.384Z,14.40
2022-09-15T03:39:55.683Z,14.40
2022-09-15T03:42:22.640Z,14.40
2022-09-15T03:44:49.285Z,14.40
2022-09-15T03:47:15.921Z,14.40
2022-09-15T03:49:42.705Z,14.40
2022-09-15T03:52:09.855Z,14.40
2022-09-15T03:54:36.525Z,14.30
2022-09-15T03:57:03.379Z,14.40
2022-09-15T03:59:30.077Z,14.40
2022-09-15T04:01:56.933Z,14.40
2022-09-15T04:04:23.659Z,14.40
2022-09-15T04:06:50.294Z,14.40
2022-09-15T04:09:17.042Z,14.40
2022-09-15T04:11:43.708Z,14.40
2022-09-15T04:14:10.309Z,14.40
2022-09-15T04:16:36.978Z,14.40
2022-09-15T04:19:03.954Z,14.40
2022-09-15T04:21:31.965Z,14.40
2022-09-15T04:23:58.667Z,14.40
2022-09-15T04:26:31.101Z,14.40
2022-09-15T04:29:01.563Z,14.40
2022-09-15T04:31:30.863Z,14.40
2022-09-15T04:33:57.883Z,14.40
2022-09-15T04:36:28.116Z,14.40
2022-09-15T04:38:55.304Z,14.40
2022-09-15T04:41:22.734Z,14.40
2022-09-15T04:43:49.828Z,14.40
2022-09-15T04:46:18.331Z,14.40
2022-09-15T04:48:46.190Z,14.40
2022-09-15T04:51:22.333Z,14.40
2022-09-15T04:53:50.194Z,14.40
2022-09-15T04:56:22.449Z,14.40
2022-09-15T04:58:52.567Z,14.40
2022-09-15T05:01:25.765Z,14.40
2022-09-15T05:03:54.503Z,14.40
2022-09-15T05:06:29.704Z,14.40
2022-09-15T05:08:57.976Z,14.40
2022-09-15T05:11:25.734Z,14.40
2022-09-15T05:13:53.065Z,14.40
2022-09-15T05:16:25.265Z,14.40
2022-09-15T05:18:53.955Z,14.40
2022-09-15T05:21:21.999Z,14.40
2022-09-15T05:23:49.267Z,14.40
2022-09-15T05:26:18.562Z,14.40
2022-09-15T05:28:45.977Z,14.40
2022-09-15T05:31:21.443Z,14.40
2022-09-15T05:33:49.718Z,14.40
2022-09-15T05:36:17.397Z,14.50
2022-09-15T05:38:44.477Z,14.40
2022-09-15T05:41:16.893Z,14.40
2022-09-15T05:43:44.179Z,14.40
2022-09-15T05:46:11.094Z,14.40
2022-09-15T05:48:37.803Z,14.40
2022-09-15T05:51:04.992Z,14.40
2022-09-15T05:53:34.740Z,14.40
2022-09-15T05:56:05.045Z,14.40
2022-09-15T05:58:32.931Z,14.40
2022-09-15T06:01:07.810Z,14.40
2022-09-15T06:03:35.594Z,14.50
2022-09-15T06:06:04.197Z,14.50
2022-09-15T06:08:36.312Z,14.60
2022-09-15T06:11:11.746Z,14.60
2022-09-15T06:13:38.497Z,14.60
2022-09-15T06:16:10.637Z,14.70
2022-09-15T06:18:38.707Z,14.80
2022-09-15T06:21:17.572Z,14.80
2022-09-15T06:23:48.598Z,14.90
2022-09-15T06:26:19.041Z,14.90
2022-09-15T06:28:49.859Z,15.00
2022-09-15T06:31:17.524Z,15.10
2022-09-15T06:33:46.667Z,15.30
2022-09-15T06:36:14.851Z,15.40
2022-09-15T06:38:42.271Z,15.40
2022-09-15T06:41:09.629Z,15.40
2022-09-15T06:43:36.680Z,15.30
2022-09-15T06:46:11.976Z,15.30
2022-09-15T06:48:39.810Z,15.30
2022-09-15T06:51:08.102Z,15.40
2022-09-15T06:53:38.052Z,15.50
2022-09-15T06:56:05.859Z,15.50
2022-09-15T06:58:35.076Z,15.50
2022-09-15T07:01:03.995Z,15.50
2022-09-15T07:03:31.277Z,15.70
2022-09-15T07:05:58.229Z,15.80
2022-09-15T07:08:24.924Z,16.00
2022-09-15T07:10:51.604Z,16.00
2022-09-15T07:13:18.243Z,16.10
2022-09-15T07:15:56.645Z,16.20
2022-09-15T07:18:24.371Z,16.20
2022-09-15T07:20:52.016Z,16.10
2022-09-15T07:23:19.279Z,16.20
2022-09-15T07:25:45.973Z,16.10
2022-09-15T07:28:12.605Z,16.10
2022-09-15T07:30:39.605Z,16.10
2022-09-15T07:33:07.359Z,16.10
2022-09-15T07:35:34.268Z,16.00
2022-09-15T07:38:00.904Z,16.00
2022-09-15T07:40:28.783Z,16.10
2022-09-15T07:42:55.992Z,16.20
2022-09-15T07:45:22.701Z,16.30
2022-09-15T07:47:49.436Z,16.40
2022-09-15T07:50:16.446Z,16.50
2022-09-15T07:52:43.164Z,16.60
2022-09-15T07:55:10.023Z,16.60
2022-09-15T07:57:36.667Z,16.70
2022-09-15T08:00:05.252Z,16.70
2022-09-15T08:02:38.945Z,16.90
2022-09-15T08:05:05.999Z,17.00
2022-09-15T08:07:32.663Z,17.00
2022-09-15T08:09:59.320Z,17.10
2022-09-15T08:12:26.087Z,17.00
2022-09-15T08:14:52.751Z,16.90
2022-09-15T08:17:19.819Z,16.90
2022-09-15T08:19:46.994Z,17.00
2022-09-15T08:22:13.984Z,17.20
2022-09-15T08:24:40.684Z,17.30
2022-09-15T08:27:07.348Z,17.40
2022-09-15T08:29:34.181Z,17.50
2022-09-15T08:32:00.970Z,17.60
2022-09-15T08:34:29.621Z,17.60
2022-09-15T08:36:56.299Z,17.70
2022-09-15T08:39:23.020Z,17.90
2022-09-15T08:41:52.857Z,18.00
2022-09-15T08:44:33.332Z,17.70
2022-09-15T08:47:18.952Z,17.80
2022-09-15T08:49:52.098Z,18.00
2022-09-15T08:52:25.747Z,18.00
2022-09-15T08:54:55.219Z,18.10
2022-09-15T08:57:24.457Z,18.00
2022-09-15T08:59:51.956Z,17.60
2022-09-15T09:02:29.388Z,17.70
2022-09-15T09:05:20.338Z,17.60
2022-09-15T09:08:18.831Z,17.60
2022-09-15T09:11:09.715Z,17.60
2022-09-15T09:13:56.414Z,17.60
2022-09-15T09:16:26.212Z,17.40
2022-09-15T09:19:32.349Z,17.30
2022-09-15T09:22:05.053Z,17.40
2022-09-15T09:24:44.814Z,17.50
2022-09-15T09:27:18.168Z,17.80
2022-09-15T09:29:51.833Z,18.10
2022-09-15T09:32:26.515Z,18.10
2022-09-15T09:35:13.898Z,17.90
2022-09-15T09:37:40.683Z,17.70
2022-09-15T09:40:13.056Z,18.10
2022-09-15T09:42:40.394Z,17.70
2022-09-15T09:45:11.277Z,17.60
2022-09-15T09:47:40.093Z,17.90
2022-09-15T09:50:43.475Z,17.90
2022-09-15T09:53:28.666Z,18.20
2022-09-15T09:56:16.291Z,18.40
2022-09-15T09:58:43.634Z,18.30
2022-09-15T10:01:18.775Z,18.40
2022-09-15T10:03:46.334Z,18.70
2022-09-15T10:06:24.577Z,18.80
2022-09-15T10:08:57.896Z,19.00
2022-09-15T10:11:46.599Z,19.10
2022-09-15T10:14:25.883Z,19.40
2022-09-15T10:17:07.281Z,19.40
2022-09-15T10:19:43.953Z,19.60
2022-09-15T10:22:35.287Z,19.60
2022-09-15T10:25:20.824Z,19.40
2022-09-15T10:28:09.568Z,19.40
2022-09-15T10:30:36.875Z,19.20
2022-09-15T10:33:24.068Z,18.90
2022-09-15T10:35:51.780Z,18.80
2022-09-15T10:38:29.940Z,19.10
2022-09-15T10:41:03.524Z,19.50
2022-09-15T10:43:50.535Z,19.60
2022-09-15T10:46:29.213Z,19.90
2022-09-15T10:49:07.852Z,20.00
2022-09-15T10:52:01.365Z,20.20
2022-09-15T10:54:38.827Z,20.30
2022-09-15T10:57:34.232Z,20.40
2022-09-15T11:00:10.347Z,20.40
2022-09-15T11:02:55.652Z,20.50
2022-09-15T11:05:46.413Z,20.10
2022-09-15T11:08:44.685Z,20.10
2022-09-15T11:11:39.186Z,20.00
2022-09-15T11:14:23.891Z,20.20
2022-09-15T11:17:11.851Z,19.80
2022-09-15T11:20:03.149Z,20.10
2022-09-15T11:22:45.037Z,20.10
2022-09-15T11:25:28.073Z,20.40
2022-09-15T11:28:04.420Z,20.60
2022-09-15T11:31:02.339Z,20.70
2022-09-15T11:33:43.300Z,20.80
2022-09-15T11:36:22.734Z,21.00
2022-09-15T11:39:04.299Z,21.20
2022-09-15T11:41:43.820Z,21.40
2022-09-15T11:44:27.577Z,21.60
2022-09-15T11:47:19.455Z,21.10
2022-09-15T11:50:01.754Z,20.30
2022-09-15T11:52:43.738Z,19.80
2022-09-15T11:55:26.447Z,19.50
2022-09-15T11:58:21.063Z,19.70
2022-09-15T12:01:17.171Z,19.50
2022-09-15T12:03:50.534Z,19.40
2022-09-15T12:06:34.980Z,20.30
2022-09-15T12:09:04.673Z,21.10
2022-09-15T12:11:38.005Z,21.50
2022-09-15T12:14:05.772Z,22.00
2022-09-15T12:16:34.580Z,21.80
2022-09-15T12:19:09.074Z,22.00
2022-09-15T12:21:53.117Z,22.00
2022-09-15T12:24:28.492Z,21.60
2022-09-15T12:26:55.289Z,21.70
2022-09-15T12:29:21.899Z,22.30
2022-09-15T12:32:28.864Z,22.60
2022-09-15T12:35:04.118Z,22.70
2022-09-15T12:37:42.928Z,22.60
2022-09-15T12:40:30.433Z,22.50
2022-09-15T12:42:57.763Z,21.60
2022-09-15T12:45:27.234Z,21.50
2022-09-15T12:48:14.073Z,21.90
2022-09-15T12:50:43.034Z,22.70
2022-09-15T12:53:26.031Z,22.80
2022-09-15T12:55:58.663Z,22.00
2022-09-15T12:58:42.165Z,21.00
2022-09-15T13:01:27.148Z,19.80
2022-09-15T13:03:55.035Z,19.40
2022-09-15T13:06:26.212Z,18.90
2022-09-15T13:09:26.739Z,18.80
2022-09-15T13:11:55.828Z,19.00
2022-09-15T13:14:41.852Z,18.90
2022-09-15T13:17:19.873Z,18.90
2022-09-15T13:19:50.192Z,18.80
2022-09-15T13:22:27.044Z,18.80
2022-09-15T13:25:15.557Z,19.00
2022-09-15T13:27:59.886Z,19.30
2022-09-15T13:31:03.319Z,19.50
2022-09-15T13:40:14.633Z,19.20
2022-09-15T13:43:10.686Z,19.50
2022-09-15T13:46:12.581Z,19.50
2022-09-15T13:49:15.962Z,19.50
2022-09-15T13:51:53.214Z,19.60
2022-09-15T13:54:20.419Z,19.40
2022-09-15T13:56:48.992Z,19.20
2022-09-15T13:59:30.262Z,19.20
2022-09-15T14:01:58.946Z,19.00
2022-09-15T14:04:31.328Z,18.60
2022-09-15T14:07:01.383Z,19.10
2022-09-15T14:09:35.301Z,19.30
2022-09-15T14:12:07.693Z,19.20
2022-09-15T14:14:47.291Z,19.10
2022-09-15T14:17:23.863Z,18.90
2022-09-15T14:19:55.956Z,18.70
2022-09-15T14:22:34.058Z,18.50
2022-09-15T14:25:07.182Z,18.30
2022-09-15T14:27:35.870Z,18.00
2022-09-15T14:30:09.157Z,17.70
2022-09-15T14:32:39.813Z,17.60
2022-09-15T14:35:09.282Z,17.60
2022-09-15T14:37:36.455Z,17.90
2022-09-15T14:40:19.604Z,18.40
2022-09-15T14:42:46.372Z,19.00
2022-09-15T14:48:15.836Z,19.60
2022-09-15T14:50:45.031Z,19.80
2022-09-15T14:53:20.583Z,19.80
2022-09-15T14:56:08.023Z,19.40
2022-09-15T14:58:45.502Z,19.40
2022-09-15T15:01:48.698Z,19.70
2022-09-15T15:04:22.997Z,20.00
2022-09-15T15:07:11.203Z,19.30
2022-09-15T15:09:46.702Z,18.90
2022-09-15T15:12:19.163Z,18.70
2022-09-15T15:14:46.254Z,18.60
2022-09-15T15:17:40.431Z,18.30
2022-09-15T15:20:09.837Z,18.20
2022-09-15T15:22:37.509Z,18.30
2022-09-15T15:25:20.860Z,18.10
2022-09-15T15:28:01.030Z,17.90
2022-09-15T15:30:43.884Z,17.90
2022-09-15T15:33:28.021Z,18.00
2022-09-15T15:36:07.099Z,18.20
2022-09-15T15:38:36.789Z,18.20
2022-09-15T15:41:06.369Z,18.40
2022-09-15T15:43:34.312Z,18.50
2022-09-15T15:46:04.336Z,18.30
2022-09-15T15:48:36.916Z,18.10
2022-09-15T15:51:06.406Z,18.00
2022-09-15T15:53:34.214Z,17.90
2022-09-15T15:56:01.113Z,17.90
2022-09-15T15:58:28.049Z,18.00
2022-09-15T16:00:56.584Z,18.00
2022-09-15T16:03:24.462Z,18.00
2022-09-15T16:05:54.119Z,17.90
2022-09-15T16:08:29.607Z,17.90
2022-09-15T16:10:57.055Z,17.80
2022-09-15T16:13:24.748Z,17.50
2022-09-15T16:15:54.173Z,17.40
2022-09-15T16:18:21.383Z,17.40
2022-09-15T16:20:48.314Z,17.40
2022-09-15T16:23:17.935Z,17.40
2022-09-15T16:25:49.685Z,17.50
2022-09-15T16:28:17.451Z,17.60
2022-09-15T16:30:44.488Z,17.50
2022-09-15T16:33:15.707Z,17.50
2022-09-15T16:35:56.111Z,17.50
2022-09-15T16:38:25.442Z,17.40
2022-09-15T16:40:52.625Z,17.30
2022-09-15T16:43:21.545Z,17.30
2022-09-15T16:45:49.487Z,17.10
2022-09-15T16:48:17.361Z,16.90
2022-09-15T16:50:50.729Z,16.80
2022-09-15T16:53:30.832Z,16.70
2022-09-15T16:55:57.540Z,16.50
2022-09-15T16:58:24.288Z,16.60
2022-09-15T17:00:52.520Z,16.50
2022-09-15T17:03:21.387Z,16.60
2022-09-15T17:05:50.093Z,16.60
2022-09-15T17:08:19.477Z,16.60
2022-09-15T17:10:47.432Z,16.80
2022-09-15T17:13:22.281Z,16.70
2022-09-15T17:15:50.954Z,16.50
2022-09-15T17:18:17.704Z,16.40
2022-09-15T17:20:45.838Z,16.40
2022-09-15T17:23:23.883Z,16.40
2022-09-15T17:25:53.232Z,16.40
2022-09-15T17:28:22.625Z,16.20
2022-09-15T17:30:51.944Z,16.10
2022-09-15T17:33:20.358Z,16.10
2022-09-15T17:35:48.689Z,16.00
2022-09-15T17:38:16.017Z,16.10
2022-09-15T17:40:43.019Z,16.00
2022-09-15T17:43:19.372Z,16.00
2022-09-15T17:45:46.959Z,15.90
2022-09-15T17:48:13.669Z,15.90
2022-09-15T17:50:41.779Z,15.90
2022-09-15T17:53:23.447Z,15.80
2022-09-15T17:55:50.739Z,15.70
2022-09-15T17:58:18.213Z,15.60
2022-09-15T18:00:45.814Z,15.50
2022-09-15T18:03:30.775Z,15.40
2022-09-15T18:05:59.751Z,15.30
2022-09-15T18:08:27.937Z,15.30
2022-09-15T18:10:55.498Z,15.30
2022-09-15T18:13:24.584Z,15.40
2022-09-15T18:15:51.471Z,15.50
2022-09-15T18:18:20.868Z,15.50
2022-09-15T18:20:49.920Z,15.40
2022-09-15T18:23:22.444Z,15.40
2022-09-15T18:25:50.027Z,15.50
2022-09-15T18:28:18.254Z,15.40
2022-09-15T18:30:48.125Z,15.30
2022-09-15T18:33:17.221Z,15.10
2022-09-15T18:35:44.722Z,14.80
2022-09-15T18:38:13.083Z,14.60
2022-09-15T18:40:45.247Z,14.50
2022-09-15T18:43:12.031Z,14.40
2022-09-15T18:45:40.825Z,14.40
2022-09-15T18:48:11.989Z,14.20
2022-09-15T18:50:40.791Z,14.20
2022-09-15T18:53:07.538Z,14.10
2022-09-15T18:55:34.249Z,14.10
2022-09-15T18:58:01.375Z,14.00
2022-09-15T19:00:29.142Z,13.90
2022-09-15T19:02:57.582Z,14.00
2022-09-15T19:05:25.343Z,13.90
2022-09-15T19:07:52.059Z,14.00
2022-09-15T19:10:18.893Z,14.00
2022-09-15T19:12:45.674Z,14.00
2022-09-15T19:15:14.057Z,14.00
2022-09-15T19:17:42.063Z,14.10
2022-09-15T19:20:11.521Z,14.10
2022-09-15T19:22:38.438Z,14.10
2022-09-15T19:25:07.709Z,13.90
2022-09-15T19:27:35.133Z,13.90
2022-09-15T19:30:02.082Z,14.00
2022-09-15T19:32:28.840Z,14.00
2022-09-15T19:34:55.574Z,14.00
2022-09-15T19:37:22.793Z,14.00
2022-09-15T19:39:49.994Z,13.90
2022-09-15T19:42:17.399Z,13.90
2022-09-15T19:44:45.981Z,13.90
2022-09-15T19:47:12.708Z,13.80
2022-09-15T19:49:39.472Z,13.80
2022-09-15T19:52:06.470Z,13.60
2022-09-15T19:54:34.356Z,13.60
2022-09-15T19:57:01.369Z,13.60
2022-09-15T19:59:31.281Z,13.50
2022-09-15T20:01:59.136Z,13.50
2022-09-15T20:04:26.768Z,13.40
2022-09-15T20:06:53.525Z,13.40
2022-09-15T20:09:20.278Z,13.40
2022-09-15T20:11:47.114Z,13.40
2022-09-15T20:14:14.292Z,13.50
2022-09-15T20:16:41.078Z,13.50
2022-09-15T20:19:07.832Z,13.50
2022-09-15T20:21:52.481Z,13.50
2022-09-15T20:24:20.243Z,13.60
2022-09-15T20:26:47.400Z,13.50
2022-09-15T20:29:14.367Z,13.50
2022-09-15T20:31:41.391Z,13.50
2022-09-15T20:34:08.073Z,13.50
2022-09-15T20:36:37.456Z,13.50
2022-09-15T20:39:08.682Z,13.40
2022-09-15T20:41:35.494Z,13.40
2022-09-15T20:44:02.382Z,13.30
2022-09-15T20:46:31.149Z,13.30
2022-09-15T20:48:57.850Z,13.20
2022-09-15T20:51:31.505Z,13.20
2022-09-15T20:53:59.730Z,13.30
2022-09-15T20:56:28.806Z,13.30
2022-09-15T20:58:59.736Z,13.30
2022-09-15T21:01:36.529Z,13.20
2022-09-15T21:04:04.187Z,13.20
2022-09-15T21:06:31.476Z,13.20
2022-09-15T21:08:58.628Z,13.20
2022-09-15T21:11:27.428Z,13.10
2022-09-15T21:13:55.406Z,13.00
2022-09-15T21:16:25.078Z,13.00
2022-09-15T21:18:52.187Z,12.80
2022-09-15T21:21:24.229Z,12.70
2022-09-15T21:23:53.878Z,12.70
2022-09-15T21:26:23.085Z,12.70
2022-09-15T21:28:50.570Z,12.80
2022-09-15T21:31:19.806Z,12.70
2022-09-15T21:33:47.824Z,12.70
2022-09-15T21:36:17.417Z,12.80
2022-09-15T21:38:44.608Z,12.80
2022-09-15T21:41:13.774Z,12.80
2022-09-15T21:43:41.906Z,12.80
2022-09-15T21:46:11.749Z,12.70
2022-09-15T21:48:38.835Z,12.70
2022-09-15T21:51:06.762Z,12.60
2022-09-15T21:53:34.956Z,12.50
2022-09-15T21:56:03.372Z,12.40
2022-09-15T21:58:39.064Z,12.40
2022-09-15T22:01:29.813Z,12.40
2022-09-15T22:03:57.680Z,12.40
2022-09-15T22:06:27.622Z,12.40
2022-09-15T22:08:55.324Z,12.40
2022-09-15T22:11:23.061Z,12.40
2022-09-15T22:13:49.806Z,12.50
2022-09-15T22:16:19.005Z,12.50
2022-09-15T22:18:46.258Z,12.60
2022-09-15T22:21:17.808Z,12.60
2022-09-15T22:23:46.170Z,12.60
2022-09-15T22:26:19.403Z,12.70
2022-09-15T22:28:46.154Z,12.60
2022-09-15T22:31:15.035Z,12.70
2022-09-15T22:33:42.378Z,12.70
2022-09-15T22:36:13.588Z,12.70
2022-09-15T22:38:40.541Z,12.80
2022-09-15T22:41:09.994Z,12.70
2022-09-15T22:43:36.910Z,12.70
2022-09-15T22:46:04.267Z,12.70
2022-09-15T22:48:31.269Z,12.70
2022-09-15T22:50:58.714Z,12.80
2022-09-15T22:53:25.943Z,12.70
2022-09-15T22:56:04.858Z,12.70
2022-09-15T22:58:32.839Z,12.70
2022-09-15T23:01:08.029Z,12.70
2022-09-15T23:03:35.024Z,12.60
2022-09-15T23:06:02.123Z,12.50
2022-09-15T23:08:30.534Z,12.50
2022-09-15T23:11:03.204Z,12.40
2022-09-15T23:13:30.173Z,12.40
2022-09-15T23:15:56.880Z,12.40
2022-09-15T23:18:23.665Z,12.40
2022-09-15T23:21:01.500Z,12.50
2022-09-15T23:23:29.421Z,12.50
2022-09-15T23:25:56.588Z,12.40
2022-09-15T23:28:23.765Z,12.50
2022-09-15T23:30:55.265Z,12.50
2022-09-15T23:33:23.488Z,12.40
2022-09-15T23:35:50.621Z,12.40
2022-09-15T23:38:18.796Z,12.40
2022-09-15T23:40:46.453Z,12.30
2022-09-15T23:43:14.081Z,12.30
2022-09-15T23:45:41.983Z,12.20
2022-09-15T23:48:09.369Z,12.20
2022-09-15T23:50:37.209Z,12.20
2022-09-15T23:53:04.329Z,12.10
2022-09-15T23:55:31.324Z,12.20
2022-09-15T23:57:58.045Z,12.20
